Time;durP1;ratioP1;P1;durP2;ratioP2;P2;SDS_P1;SDS_P2;PMS_P1;PMS_P2;Temp;Humidity;BMP_temperature;BMP_pressure;BME280_temperature;BME280_humidity;BME280_pressure;Samples;Min_cycle;Max_cycle;Signal;HPM_P1;HPM_P2
2022/01/12 00:01:59;;;;;;;0.30;0.20;;;;;;;5.22;57.02;95326.63;5136539;27;20466;-54
2022/01/12 00:04:28;;;;;;;0.30;0.20;;;;;;;5.78;62.09;95347.59;5136581;27;21014;-54
2022/01/12 00:06:58;;;;;;;0.30;0.20;;;;;;;5.62;54.93;95353.63;5136470;27;20564;-54
2022/01/12 00:09:27;;;;;;;0.30;0.20;;;;;;;5.99;58.51;95351.41;5136383;27;20479;-54
2022/01/12 00:11:56;;;;;;;0.30;0.20;;;;;;;5.12;54.76;95241.38;5136293;27;20961;-54
2022/01/12 00:14:25;;;;;;;0.30;0.20;;;;;;;5.78;53.38;95358.13;5136763;27;20427;-54
2022/01/12 00:16:58;;;;;;;0.30;0.20;;;;;;;4.67;54.18;95189.88;5136576;27;20819;-54
2022/01/12 00:19:29;;;;;;;0.30;0.20;;;;;;;4.96;57.57;95302.53;5136678;27;20949;-54
2022/01/12 00:21:59;;;;;;;0.30;0.20;;;;;;;5.18;58.84;95336.84;5136322;27;20930;-54
2022/01/12 00:24:40;;;;;;;0.30;0.20;;;;;;;5.31;52.75;95368.09;5136301;27;20479;-54
2022/01/12 00:35:26;;;;;;;0.30;0.20;;;;;;;5.35;52.40;95390.22;5135932;27;20437;-53
2022/01/12 00:37:56;;;;;;;0.30;0.20;;;;;;;5.39;57.95;95372.94;5136053;27;20426;-54
2022/01/12 00:40:25;;;;;;;0.30;0.20;;;;;;;5.79;60.58;95386.03;5135939;27;20422;-54
2022/01/12 00:42:54;;;;;;;0.30;0.23;;;;;;;5.55;61.30;95385.34;5135812;27;20487;-54
2022/01/12 00:45:22;;;;;;;0.40;0.40;;;;;;;5.40;52.81;95377.19;5135487;27;20422;-54
2022/01/12 00:47:51;;;;;;;0.30;0.20;;;;;;;5.43;51.43;95392.47;5135718;27;20430;-54
2022/01/12 00:50:19;;;;;;;0.30;0.20;;;;;;;5.42;51.65;95382.19;5135948;27;20865;-54
2022/01/12 00:52:50;;;;;;;0.30;0.20;;;;;;;5.16;51.45;95348.63;5136066;27;20431;-54
2022/01/12 00:55:20;;;;;;;0.30;0.20;;;;;;;5.00;54.25;95316.81;5135906;27;20488;-54
2022/01/12 00:57:50;;;;;;;0.30;0.20;;;;;;;5.32;53.10;95379.38;5135468;27;20544;-54
2022/01/12 01:00:21;;;;;;;0.40;0.30;;;;;;;5.58;54.08;95381.44;5135586;27;20431;-55
2022/01/12 01:02:50;;;;;;;0.30;0.20;;;;;;;5.50;53.25;95395.75;5135570;27;20473;-54
2022/01/12 01:05:21;;;;;;;0.30;0.20;;;;;;;5.74;56.54;95388.56;5135536;27;20429;-55
2022/01/12 01:07:50;;;;;;;0.30;0.20;;;;;;;5.71;52.09;95376.69;5135723;27;20430;-54
2022/01/12 01:10:29;;;;;;;0.40;0.30;;;;;;;5.68;55.65;95379.00;5135700;27;20587;-54
2022/01/12 01:12:57;;;;;;;0.40;0.40;;;;;;;5.10;56.75;95327.50;5135360;27;20926;-54
2022/01/12 01:15:42;;;;;;;0.30;0.20;;;;;;;0.00;53.72;94579.53;5135324;27;20458;-54
2022/01/12 01:26:29;;;;;;;0.30;0.20;;;;;;;5.55;53.21;95384.53;5135157;27;20482;-54
2022/01/12 01:28:58;;;;;;;0.30;0.20;;;;;;;5.23;52.40;95491.94;5135170;27;20443;-55
2022/01/12 01:31:30;;;;;;;0.47;0.47;;;;;;;5.38;50.72;95392.41;5134944;27;20792;-54
2022/01/12 01:34:06;;;;;;;0.30;0.20;;;;;;;4.96;54.00;95294.66;5134881;27;20415;-54
2022/01/12 01:36:36;;;;;;;0.30;0.20;;;;;;;5.53;51.20;95386.59;5134795;27;20431;-54
2022/01/12 01:39:06;;;;;;;0.30;0.20;;;;;;;5.40;52.97;95392.16;5134791;27;20431;-54
2022/01/12 01:41:39;;;;;;;0.30;0.20;;;;;;;5.38;50.41;95392.41;5134684;27;20435;-54
2022/01/12 01:55:14;;;;;;;0.30;0.30;;;;;;;4.83;51.17;95310.69;5134791;27;20418;-54
2022/01/12 01:57:44;;;;;;;0.30;0.20;;;;;;;4.93;49.82;95365.25;5134319;27;20526;-54
2022/01/12 02:00:16;;;;;;;0.30;0.20;;;;;;;5.32;51.62;95390.69;5134441;27;20435;-54
2022/01/12 02:02:45;;;;;;;0.30;0.20;;;;;;;5.20;52.20;95384.69;5134168;27;20474;-55
2022/01/12 02:05:14;;;;;;;0.30;0.20;;;;;;;5.09;50.79;95393.38;5134214;27;20510;-54
2022/01/12 02:07:44;;;;;;;0.30;0.20;;;;;;;5.04;50.93;95398.53;5134060;27;20932;-55
2022/01/12 02:10:12;;;;;;;0.30;0.20;;;;;;;5.09;51.27;95407.31;5133580;27;20427;-54
2022/01/12 02:12:43;;;;;;;0.30;0.20;;;;;;;5.14;50.36;95402.19;5133830;27;20430;-54
2022/01/12 02:15:19;;;;;;;0.30;0.20;;;;;;;5.14;53.00;95398.75;5133659;27;20434;-54
2022/01/12 02:18:10;;;;;;;0.30;0.20;;;;;;;5.24;53.07;95403.41;5134200;27;20461;-55
2022/01/12 02:35:20;;;;;;;0.30;0.20;;;;;;;5.27;52.43;95416.06;5133943;27;20430;-54
2022/01/12 02:40:46;;;;;;;0.30;0.20;;;;;;;5.34;51.89;95416.75;5133755;27;20485;-54
2022/01/12 02:43:18;;;;;;;0.30;0.20;;;;;;;5.44;55.78;95393.28;5133497;27;20427;-55
2022/01/12 02:51:30;;;;;;;0.30;0.20;;;;;;;4.95;51.70;95406.00;5133086;27;20492;-54
2022/01/12 02:53:59;;;;;;;0.30;0.20;;;;;;;5.17;49.89;95424.56;5133288;27;20456;-54
2022/01/12 02:56:29;;;;;;;0.30;0.20;;;;;;;4.68;48.71;95372.59;5133389;27;20439;-54
2022/01/12 02:58:59;;;;;;;0.30;0.20;;;;;;;5.17;50.28;95434.25;5133082;27;20426;-54
2022/01/12 03:04:21;;;;;;;0.30;0.20;;;;;;;5.02;50.58;95429.50;5121732;27;20500;-54
2022/01/12 03:06:51;;;;;;;2.77;0.43;;;;;;;4.35;56.62;95310.25;5132915;27;20518;-54
2022/01/12 03:09:21;;;;;;;1.23;1.07;;;;;;;4.54;48.11;95350.25;5133016;27;20418;-55
2022/01/12 03:11:50;;;;;;;0.30;0.20;;;;;;;5.20;52.20;95439.06;5132965;27;20555;-54
2022/01/12 03:14:18;;;;;;;0.30;0.20;;;;;;;4.93;49.04;95425.66;5133256;27;20454;-54
2022/01/12 03:16:47;;;;;;;0.30;0.20;;;;;;;3.29;49.92;95226.56;5132827;27;20430;-54
2022/01/12 03:19:16;;;;;;;0.30;0.20;;;;;;;4.68;52.11;95373.38;5133172;27;20446;-54
2022/01/12 03:21:44;;;;;;;0.30;0.20;;;;;;;5.09;48.88;95432.78;5132340;27;20858;-54
2022/01/12 03:24:13;;;;;;;0.30;0.20;;;;;;;5.12;47.50;95438.41;5132350;27;20494;-54
2022/01/12 03:26:43;;;;;;;0.30;0.23;;;;;;;4.21;47.55;95303.63;5132695;27;20446;-54
2022/01/12 03:29:11;;;;;;;0.30;0.20;;;;;;;5.10;50.33;95435.19;5132231;27;20422;-55
2022/01/12 03:31:40;;;;;;;5.40;0.60;;;;;;;0.24;48.60;94754.19;5132704;27;20460;-54
2022/01/12 03:34:20;;;;;;;0.30;0.20;;;;;;;5.23;51.30;95439.41;5132753;27;20979;-54
2022/01/12 04:10:04;;;;;;;0.30;0.20;;;;;;;5.56;51.58;95459.75;5132325;28;20558;-54
2022/01/12 04:12:33;;;;;;;0.30;0.20;;;;;;;5.49;47.59;95474.88;5132324;28;20430;-54
2022/01/12 04:15:01;;;;;;;0.30;0.20;;;;;;;5.13;49.56;95429.47;5131603;28;20479;-53
2022/01/12 04:17:30;;;;;;;0.30;0.30;;;;;;;5.33;46.61;95479.03;5132264;28;20915;-54
2022/01/12 04:20:01;;;;;;;0.30;0.20;;;;;;;5.20;45.69;95494.22;5132189;28;20794;-53
2022/01/12 04:25:18;;;;;;;0.30;0.20;;;;;;;5.18;54.49;95480.53;5132153;28;20483;-54
2022/01/12 04:27:46;;;;;;;0.30;0.20;;;;;;;5.39;46.73;95498.31;5132372;27;20462;-55
2022/01/12 04:30:15;;;;;;;0.30;0.20;;;;;;;5.30;47.13;95508.38;5131956;28;20423;-54
2022/01/12 04:32:44;;;;;;;1.33;1.33;;;;;;;5.35;49.46;95507.69;5131859;27;20456;-54
2022/01/12 04:35:14;;;;;;;0.30;0.20;;;;;;;5.09;44.99;95522.91;5135219;27;20423;-54
2022/01/12 04:37:45;;;;;;;0.30;0.20;;;;;;;4.96;45.73;95520.53;5135723;27;20486;-54
2022/01/12 04:40:13;;;;;;;0.30;0.20;;;;;;;5.13;45.33;95526.66;5136122;27;20475;-55
2022/01/12 04:42:42;;;;;;;0.30;0.20;;;;;;;5.18;45.75;95536.50;5135874;27;20907;-55
2022/01/12 04:45:32;;;;;;;0.30;0.20;;;;;;;4.68;45.05;95477.63;5135623;27;20431;-55
2022/01/12 04:48:08;;;;;;;0.30;0.20;;;;;;;3.80;45.86;95386.59;5135639;27;20545;-54
2022/01/12 04:50:37;;;;;;;0.30;0.20;;;;;;;4.88;50.01;95549.75;5135779;27;21027;-55
2022/01/12 04:53:11;;;;;;;0.30;0.20;;;;;;;4.95;45.63;95553.09;5135639;27;20451;-55
2022/01/12 04:55:40;;;;;;;0.30;0.20;;;;;;;3.64;46.43;95429.16;5135445;27;20976;-54
2022/01/12 04:58:09;;;;;;;0.30;0.20;;;;;;;4.72;46.62;95553.06;5135823;27;20439;-55
2022/01/12 05:00:39;;;;;;;0.30;0.30;;;;;;;4.90;48.69;95555.59;5134948;27;20485;-55
2022/01/12 05:09:03;;;;;;;0.30;0.20;;;;;;;4.77;47.23;95571.56;5135071;27;20485;-55
2022/01/12 05:14:19;;;;;;;0.50;0.40;;;;;;;4.95;46.21;95573.28;5135488;27;20430;-55
2022/01/12 05:16:47;;;;;;;0.30;0.20;;;;;;;4.94;50.55;95545.41;5135335;27;20419;-55
2022/01/12 05:19:16;;;;;;;0.30;0.20;;;;;;;4.12;47.50;95446.63;5135066;27;20529;-54
2022/01/12 05:21:44;;;;;;;0.30;0.20;;;;;;;5.09;45.75;95593.84;5135069;27;20426;-54
2022/01/12 05:24:14;;;;;;;0.30;0.20;;;;;;;4.75;45.68;95591.19;5135120;27;20426;-54
2022/01/12 05:26:43;;;;;;;0.30;0.20;;;;;;;5.24;45.91;95611.00;5134789;27;20795;-54
2022/01/12 05:29:11;;;;;;;0.30;0.30;;;;;;;5.16;45.44;95601.63;5134574;27;20994;-54
2022/01/12 05:31:40;;;;;;;0.30;0.20;;;;;;;2.28;46.13;95275.47;5134767;27;20458;-55
2022/01/12 05:34:08;;;;;;;0.30;0.20;;;;;;;4.87;47.05;95565.75;5135015;27;20431;-55
2022/01/12 05:36:37;;;;;;;0.40;0.40;;;;;;;4.94;49.08;95567.22;5134550;27;20458;-55
2022/01/12 05:39:06;;;;;;;0.30;0.30;;;;;;;5.02;47.80;95563.47;5134932;27;20439;-55
2022/01/12 05:41:36;;;;;;;0.60;0.60;;;;;;;5.24;47.43;95617.03;5134509;27;20435;-55
2022/01/12 05:44:07;;;;;;;0.30;0.20;;;;;;;5.48;56.01;95607.31;5134829;27;20867;-55
2022/01/12 05:46:37;;;;;;;0.30;0.20;;;;;;;5.41;49.64;95617.16;5133296;27;20470;-55
2022/01/12 05:51:52;;;;;;;0.30;0.20;;;;;;;5.16;47.39;95627.09;5134442;27;20430;-55
2022/01/12 05:54:20;;;;;;;0.30;0.20;;;;;;;5.33;46.21;95634.06;5134580;27;20846;-55
2022/01/12 05:56:51;;;;;;;0.33;0.30;;;;;;;5.31;46.93;95637.97;5134686;27;20499;-55
2022/01/12 05:59:23;;;;;;;0.30;0.30;;;;;;;5.26;47.21;95588.72;5134393;27;20844;-55
2022/01/12 06:01:51;;;;;;;0.30;0.20;;;;;;;5.55;46.99;95636.91;5134094;27;20551;-55
2022/01/12 06:04:20;;;;;;;1.53;1.53;;;;;;;5.42;46.59;95648.47;5134525;27;20418;-55
2022/01/12 06:06:49;;;;;;;0.30;0.20;;;;;;;0.80;47.15;94973.75;5134111;27;20423;-55
2022/01/12 06:09:17;;;;;;;0.40;0.40;;;;;;;5.42;47.20;95658.97;5134322;27;20462;-55
2022/01/12 06:11:46;;;;;;;0.30;0.20;;;;;;;0.36;47.46;94981.81;5134038;27;20423;-55
2022/01/12 06:14:19;;;;;;;1.73;0.30;;;;;;;5.09;50.79;95671.84;5133143;27;20415;-55
2022/01/12 06:16:47;;;;;;;0.40;0.30;;;;;;;5.30;49.73;95671.31;5134152;27;20511;-55
2022/01/12 06:19:18;;;;;;;0.33;0.27;;;;;;;5.02;49.99;95690.34;5134057;27;20491;-55
2022/01/12 06:21:46;;;;;;;0.30;0.20;;;;;;;5.18;48.31;95680.22;5133880;27;20431;-55
2022/01/12 06:24:15;;;;;;;0.30;0.20;;;;;;;4.90;47.59;95686.09;5134323;27;20418;-55
2022/01/12 06:26:46;;;;;;;0.30;0.20;;;;;;;5.05;47.39;95682.03;5134057;27;20483;-55
2022/01/12 06:29:26;;;;;;;0.30;0.20;;;;;;;5.34;46.90;95696.09;5133653;27;20465;-55
2022/01/12 06:31:57;;;;;;;1.37;1.37;;;;;;;5.21;47.57;95682.41;5134091;27;20471;-55
2022/01/12 06:34:25;;;;;;;1.43;0.57;;;;;;;5.47;52.53;95711.66;5133713;27;20434;-55
2022/01/12 06:36:54;;;;;;;0.30;0.20;;;;;;;5.21;46.73;95701.59;5134035;27;20454;-55
2022/01/12 06:39:23;;;;;;;0.50;0.50;;;;;;;4.64;46.95;95687.25;5133629;27;20455;-55
2022/01/12 06:41:54;;;;;;;0.40;0.40;;;;;;;4.79;47.05;95716.53;5133749;27;20426;-55
2022/01/12 06:44:25;;;;;;;0.30;0.20;;;;;;;4.66;46.27;95685.22;5133544;27;20812;-55
2022/01/12 06:46:56;;;;;;;1.17;1.17;;;;;;;4.72;46.53;95736.03;5133700;27;20429;-54
2022/01/12 06:49:25;;;;;;;0.40;0.20;;;;;;;4.22;46.14;95694.28;5133463;27;20515;-54
2022/01/12 06:51:54;;;;;;;0.30;0.20;;;;;;;4.66;47.25;95723.78;5133524;27;20435;-54
2022/01/12 06:54:23;;;;;;;0.30;0.30;;;;;;;4.68;49.15;95704.16;5133339;27;20415;-54
2022/01/12 06:56:51;;;;;;;0.53;0.53;;;;;;;4.82;46.81;95746.81;5132880;27;20431;-54
2022/01/12 06:59:20;;;;;;;0.30;0.20;;;;;;;5.22;44.34;95749.66;5133115;27;20442;-55
2022/01/12 07:01:51;;;;;;;0.30;0.20;;;;;;;4.85;46.01;95754.25;5132733;27;20521;-54
2022/01/12 07:04:20;;;;;;;0.60;0.60;;;;;;;4.55;44.55;95730.63;5133057;27;20469;-54
2022/01/12 07:06:48;;;;;;;0.30;0.20;;;;;;;4.87;45.06;95760.88;5133282;27;20427;-54
2022/01/12 07:09:18;;;;;;;0.73;0.73;;;;;;;4.78;45.10;95708.91;5132946;27;20472;-54
2022/01/12 07:11:48;;;;;;;0.30;0.20;;;;;;;5.39;44.29;95761.16;5133005;27;20824;-53
2022/01/12 07:14:16;;;;;;;0.77;0.77;;;;;;;5.20;44.29;95764.88;5132604;27;20847;-56
2022/01/12 07:16:45;;;;;;;0.30;0.20;;;;;;;4.90;45.06;95697.41;5132386;27;20503;-54
2022/01/12 07:19:15;;;;;;;0.30;0.20;;;;;;;5.69;44.08;95767.16;5132920;27;20431;-55
2022/01/12 07:21:43;;;;;;;0.30;0.30;;;;;;;5.41;43.59;95774.88;5132637;27;20438;-54
2022/01/12 07:24:12;;;;;;;0.30;0.20;;;;;;;4.93;44.12;95744.22;5133152;27;20487;-55
2022/01/12 07:26:40;;;;;;;0.47;0.47;;;;;;;5.23;44.33;95774.94;5132784;27;20999;-54
2022/01/12 07:29:11;;;;;;;0.30;0.20;;;;;;;5.88;49.74;95773.13;5132474;27;20466;-55
2022/01/12 07:31:39;;;;;;;0.30;0.30;;;;;;;3.91;44.50;95552.03;5133263;27;20446;-54
2022/01/12 07:34:08;;;;;;;0.50;0.50;;;;;;;6.32;46.53;95790.97;5133132;27;20438;-54
2022/01/12 07:36:38;;;;;;;0.40;0.40;;;;;;;6.34;43.25;95791.53;5132705;27;20438;-54
2022/01/12 07:39:07;;;;;;;0.30;0.20;;;;;;;6.64;42.13;95788.72;5132579;27;20598;-54
2022/01/12 07:41:36;;;;;;;0.30;0.20;;;;;;;6.94;42.43;95798.03;5132542;27;20917;-53
2022/01/12 07:44:05;;;;;;;0.30;0.20;;;;;;;7.31;40.92;95802.94;5132471;28;20442;-54
2022/01/12 07:46:33;;;;;;;0.30;0.20;;;;;;;7.56;40.04;95798.88;5132532;27;20454;-54
2022/01/12 07:49:02;;;;;;;0.70;0.40;;;;;;;6.56;40.06;95617.91;5132577;28;20534;-52
2022/01/12 07:51:30;;;;;;;0.30;0.20;;;;;;;8.00;38.99;95809.59;5132369;28;20415;-52
2022/01/12 07:54:01;;;;;;;0.30;0.20;;;;;;;8.33;39.00;95799.03;5132393;27;20961;-53
2022/01/12 07:56:29;;;;;;;0.30;0.20;;;;;;;8.72;38.70;95755.72;5132398;27;20914;-52
2022/01/12 07:58:58;;;;;;;0.40;0.40;;;;;;;9.16;37.43;95811.97;5132670;27;20519;-52
2022/01/12 08:01:26;;;;;;;0.30;0.20;;;;;;;8.71;38.55;95750.66;5132089;28;20462;-53
2022/01/12 08:03:55;;;;;;;0.43;0.43;;;;;;;9.76;36.27;95800.41;5132241;28;20431;-53
2022/01/12 08:06:23;;;;;;;0.30;0.20;;;;;;;9.44;35.68;95795.06;5132356;28;20503;-52
2022/01/12 08:08:52;;;;;;;0.40;0.40;;;;;;;9.78;36.62;95754.09;5133232;27;20430;-52
2022/01/12 08:11:22;;;;;;;0.70;0.50;;;;;;;10.31;35.40;95819.41;5136776;27;20419;-53
2022/01/12 08:13:50;;;;;;;1.47;0.73;;;;;;;9.29;35.94;95668.78;5136226;27;20434;-54
2022/01/12 08:16:19;;;;;;;0.83;0.60;;;;;;;9.98;35.48;95823.09;5136115;27;20410;-53
2022/01/12 08:18:47;;;;;;;0.50;0.50;;;;;;;9.23;35.51;95825.03;5136058;27;20433;-52
2022/01/12 08:21:16;;;;;;;0.30;0.30;;;;;;;8.50;35.47;95765.47;5136031;27;20446;-52
2022/01/12 08:23:44;;;;;;;0.40;0.40;;;;;;;8.13;36.22;95822.47;5135569;27;20434;-52
2022/01/12 08:26:13;;;;;;;0.30;0.20;;;;;;;8.29;36.12;95827.81;5135904;27;20491;-52
2022/01/12 08:28:43;;;;;;;1.23;0.43;;;;;;;7.59;36.73;95811.59;5136097;27;20864;-52
2022/01/12 08:31:11;;;;;;;0.30;0.20;;;;;;;7.31;37.35;95827.44;5135839;27;20462;-52
2022/01/12 08:33:40;;;;;;;0.57;0.57;;;;;;;7.32;36.70;95846.69;5135695;27;20521;-53
2022/01/12 08:36:08;;;;;;;0.97;0.97;;;;;;;7.06;37.89;95845.41;5135789;27;20422;-53
2022/01/12 08:38:37;;;;;;;0.30;0.20;;;;;;;6.38;38.42;95811.88;5135670;27;20438;-53
2022/01/12 08:41:05;;;;;;;0.80;0.80;;;;;;;6.23;41.44;95848.41;5135695;27;20971;-53
2022/01/12 08:43:34;;;;;;;0.60;0.60;;;;;;;6.19;39.59;95862.25;5136032;27;20481;-53
2022/01/12 08:46:04;;;;;;;0.40;0.30;;;;;;;6.22;39.63;95856.53;5135584;27;20942;-53
2022/01/12 08:48:32;;;;;;;1.70;0.53;;;;;;;6.37;44.83;95851.63;5134928;27;20430;-53
2022/01/12 08:51:01;;;;;;;0.30;0.20;;;;;;;5.19;39.63;95689.72;5135148;27;20470;-53
2022/01/12 08:53:30;;;;;;;0.30;0.20;;;;;;;6.06;43.05;95850.13;5134318;27;20427;-53
2022/01/12 08:55:59;;;;;;;0.30;0.20;;;;;;;5.85;39.29;95839.31;5135466;27;20439;-54
2022/01/12 08:58:27;;;;;;;0.90;0.47;;;;;;;6.65;39.89;95854.34;5135221;27;20430;-53
2022/01/12 09:01:00;;;;;;;0.50;0.47;;;;;;;7.51;44.49;95835.72;5134617;27;20474;-52
2022/01/12 09:03:30;;;;;;;0.30;0.20;;;;;;;8.83;37.01;95857.84;5135068;27;20509;-52
2022/01/12 09:05:59;;;;;;;0.30;0.20;;;;;;;9.02;43.26;95865.50;5134982;27;20466;-52
2022/01/12 09:08:27;;;;;;;0.30;0.20;;;;;;;7.78;36.15;95843.84;5135021;27;20502;-52
2022/01/12 09:10:56;;;;;;;0.30;0.20;;;;;;;7.29;36.29;95873.53;5134490;27;21082;-52
2022/01/12 09:13:24;;;;;;;0.40;0.30;;;;;;;7.63;37.77;95864.69;5134980;27;20431;-53
2022/01/12 09:15:53;;;;;;;0.30;0.20;;;;;;;7.81;36.48;95851.28;5134831;27;20431;-53
2022/01/12 09:18:21;;;;;;;0.30;0.20;;;;;;;8.34;36.53;95865.88;5134762;27;20442;-52
2022/01/12 09:20:53;;;;;;;1.70;0.30;;;;;;;8.98;35.60;95869.69;5134732;27;20430;-52
2022/01/12 09:23:27;;;;;;;0.30;0.20;;;;;;;9.32;34.61;95842.84;5135127;27;20857;-51
2022/01/12 09:25:55;;;;;;;0.30;0.20;;;;;;;10.47;37.87;95849.47;5134391;27;20862;-52
2022/01/12 09:28:24;;;;;;;0.30;0.20;;;;;;;11.33;31.99;95853.34;5134603;27;20423;-53
2022/01/12 09:30:53;;;;;;;0.30;0.30;;;;;;;10.93;31.99;95839.91;5134452;27;20519;-55
2022/01/12 09:33:22;;;;;;;0.30;0.20;;;;;;;10.64;32.36;95837.63;5134224;27;20436;-56
2022/01/12 09:35:53;;;;;;;0.40;0.20;;;;;;;11.13;32.06;95840.78;5134036;27;20422;-57
2022/01/12 09:38:23;;;;;;;0.30;0.20;;;;;;;11.12;32.43;95833.91;5134297;27;20865;-58
2022/01/12 09:40:53;;;;;;;0.30;0.20;;;;;;;11.25;31.74;95822.81;5134317;27;20426;-58
2022/01/12 09:43:25;;;;;;;0.73;0.73;;;;;;;11.55;32.18;95830.03;5134501;27;20487;-58
2022/01/12 09:45:54;;;;;;;0.97;0.97;;;;;;;10.87;31.20;95785.25;5134487;27;20430;-57
2022/01/12 09:48:26;;;;;;;0.80;0.80;;;;;;;11.08;31.60;95832.03;5134263;27;20475;-57
2022/01/12 09:50:59;;;;;;;0.30;0.20;;;;;;;11.67;41.73;95825.28;5134150;27;20463;-57
2022/01/12 09:53:29;;;;;;;0.40;0.30;;;;;;;11.59;30.71;95827.63;5134431;27;20453;-55
2022/01/12 09:55:58;;;;;;;0.30;0.20;;;;;;;11.63;30.43;95823.41;5134132;27;20488;-55
2022/01/12 09:58:33;;;;;;;6.23;0.33;;;;;;;11.91;31.37;95812.34;5134121;27;20479;-55
2022/01/12 10:01:03;;;;;;;0.40;0.30;;;;;;;11.45;29.84;95763.66;5133440;27;20462;-56
2022/01/12 10:03:33;;;;;;;0.30;0.30;;;;;;;12.20;30.19;95813.38;5134049;27;20927;-55
2022/01/12 10:06:13;;;;;;;0.30;0.27;;;;;;;13.20;36.08;95808.91;5133862;27;20460;-55
2022/01/12 10:08:42;;;;;;;0.40;0.20;;;;;;;14.09;33.02;95826.50;5134132;27;20453;-54
2022/01/12 10:11:12;;;;;;;0.30;0.20;;;;;;;13.30;28.67;95816.84;5134042;27;20859;-54
2022/01/12 10:13:41;;;;;;;0.40;0.30;;;;;;;12.66;28.92;95816.78;5133571;27;20494;-54
2022/01/12 10:16:15;;;;;;;0.60;0.60;;;;;;;12.57;29.50;95810.44;5133988;27;20470;-54
2022/01/12 10:18:49;;;;;;;0.40;0.30;;;;;;;12.47;29.09;95811.22;5134075;27;20418;-54
2022/01/12 10:21:30;;;;;;;0.50;0.30;;;;;;;11.45;30.14;95817.56;5133859;27;20484;-55
2022/01/12 10:24:05;;;;;;;0.40;0.30;;;;;;;11.74;30.38;95803.84;5133748;27;20422;-54
2022/01/12 10:26:39;;;;;;;2.10;0.70;;;;;;;12.72;27.87;95816.47;5133394;27;20426;-54
2022/01/12 10:29:11;;;;;;;0.40;0.30;;;;;;;13.29;29.68;95809.94;5132966;27;20422;-57
2022/01/12 10:31:51;;;;;;;0.40;0.33;;;;;;;13.95;30.26;95800.47;5132900;27;20886;-57
2022/01/12 10:34:23;;;;;;;0.40;0.30;;;;;;;14.41;28.35;95802.78;5133458;27;20470;-57
2022/01/12 10:36:55;;;;;;;0.40;0.20;;;;;;;13.04;27.32;95807.34;5133413;27;20430;-57
2022/01/12 10:39:26;;;;;;;0.40;0.37;;;;;;;13.22;27.76;95798.78;5133518;27;20482;-57
2022/01/12 10:41:57;;;;;;;4.13;0.43;;;;;;;14.35;26.58;95794.03;5133627;27;20469;-57
2022/01/12 10:44:28;;;;;;;0.40;0.30;;;;;;;13.73;26.08;95800.09;5133146;27;20427;-56
2022/01/12 10:47:16;;;;;;;0.50;0.43;;;;;;;13.86;25.78;95804.78;5133212;27;20423;-57
2022/01/12 10:49:58;;;;;;;0.40;0.30;;;;;;;12.73;26.40;95790.69;5133403;27;20423;-57
2022/01/12 10:52:30;;;;;;;0.50;0.43;;;;;;;13.01;27.23;95802.56;5132512;27;20470;-57
2022/01/12 10:55:02;;;;;;;0.40;0.30;;;;;;;14.15;25.92;95801.38;5133366;27;20426;-56
2022/01/12 10:57:33;;;;;;;0.40;0.20;;;;;;;13.40;26.44;95830.13;5133128;27;20427;-57
2022/01/12 11:00:18;;;;;;;0.80;0.80;;;;;;;13.76;26.73;95794.19;5132887;27;20795;-57
2022/01/12 11:02:48;;;;;;;1.67;0.83;;;;;;;14.08;26.47;95800.91;5132675;27;20466;-57
2022/01/12 11:05:18;;;;;;;0.40;0.40;;;;;;;13.96;30.70;95794.03;5133330;27;20982;-57
2022/01/12 11:07:49;;;;;;;0.40;0.30;;;;;;;13.13;26.32;95712.63;5132935;27;20435;-57
2022/01/12 11:10:19;;;;;;;0.70;0.67;;;;;;;14.23;26.08;95798.91;5132812;27;20475;-57
2022/01/12 11:12:48;;;;;;;0.57;0.30;;;;;;;14.51;24.89;95787.47;5132922;27;20426;-57
2022/01/12 11:15:19;;;;;;;1.13;1.13;;;;;;;14.22;23.82;95780.53;5133014;27;20891;-57
2022/01/12 11:17:50;;;;;;;0.40;0.20;;;;;;;15.22;23.98;95760.75;5132767;27;20462;-57
2022/01/12 11:20:22;;;;;;;1.37;0.40;;;;;;;15.48;23.97;95773.81;5132696;27;20423;-57
2022/01/12 11:23:04;;;;;;;0.40;0.30;;;;;;;14.37;24.75;95732.44;5132823;27;20477;-57
2022/01/12 11:25:35;;;;;;;0.40;0.20;;;;;;;14.35;25.11;95774.56;5132338;27;20431;-57
2022/01/12 11:28:09;;;;;;;0.40;0.30;;;;;;;14.85;24.85;95707.31;5132908;27;20415;-59
2022/01/12 11:30:39;;;;;;;0.70;0.70;;;;;;;15.09;24.31;95769.47;5132627;27;20437;-58
2022/01/12 11:33:10;;;;;;;0.40;0.30;;;;;;;14.85;24.78;95774.03;5132689;27;20426;-58
2022/01/12 11:35:42;;;;;;;0.40;0.30;;;;;;;15.30;26.13;95769.22;5132756;27;20822;-57
2022/01/12 11:38:23;;;;;;;0.40;0.20;;;;;;;15.82;23.97;95766.34;5132700;27;20479;-58
2022/01/12 11:40:54;;;;;;;0.40;0.20;;;;;;;16.20;23.40;95765.19;5132884;28;20481;-57
2022/01/12 11:43:27;;;;;;;3.23;1.37;;;;;;;15.26;24.68;95766.31;5131930;27;20434;-58
2022/01/12 11:46:07;;;;;;;1.07;0.57;;;;;;;14.11;24.02;95765.69;5132908;27;20806;-58
2022/01/12 11:48:37;;;;;;;0.57;0.57;;;;;;;13.80;24.07;95765.94;5132512;28;20454;-58
2022/01/12 11:51:06;;;;;;;0.63;0.63;;;;;;;13.14;24.71;95786.03;5132782;28;20496;-59
2022/01/12 11:53:46;;;;;;;2.93;0.40;;;;;;;13.21;26.53;95712.00;5132307;28;20469;-59
2022/01/12 11:56:17;;;;;;;0.60;0.40;;;;;;;13.62;23.34;95755.13;5132332;28;20844;-59
2022/01/12 11:59:00;;;;;;;0.50;0.30;;;;;;;13.46;25.17;95767.75;5132519;28;20851;-59
2022/01/12 12:01:41;;;;;;;0.40;0.30;;;;;;;14.16;24.82;95770.97;5132119;27;20505;-59
2022/01/12 12:04:10;;;;;;;0.93;0.40;;;;;;;13.70;25.73;95776.66;5132108;28;20853;-58
2022/01/12 12:06:38;;;;;;;0.40;0.30;;;;;;;13.69;23.91;95772.41;5132153;27;20415;-59
2022/01/12 12:09:12;;;;;;;0.50;0.40;;;;;;;13.94;25.35;95768.75;5131259;28;20953;-60
2022/01/12 12:11:40;;;;;;;0.40;0.30;;;;;;;13.90;23.48;95767.72;5132031;28;20462;-60
2022/01/12 12:14:09;;;;;;;0.40;0.40;;;;;;;12.79;24.04;95768.34;5132057;28;20960;-60
2022/01/12 12:16:38;;;;;;;0.30;0.20;;;;;;;13.65;24.00;95782.03;5132371;28;20503;-59
2022/01/12 12:19:07;;;;;;;0.50;0.30;;;;;;;13.15;24.27;95780.47;5132001;27;20479;-58
2022/01/12 12:21:37;;;;;;;0.90;0.90;;;;;;;13.77;22.84;95766.50;5132179;28;20411;-58
2022/01/12 12:24:11;;;;;;;0.40;0.40;;;;;;;13.73;22.59;95783.31;5132123;28;20471;-58
2022/01/12 12:26:46;;;;;;;1.63;0.70;;;;;;;12.98;23.57;95763.22;5132426;28;20429;-60
2022/01/12 12:29:16;;;;;;;0.40;0.30;;;;;;;14.40;22.98;95774.50;5130800;28;20449;-59
2022/01/12 12:31:49;;;;;;;0.40;0.30;;;;;;;15.14;21.66;95777.41;5132348;28;20458;-60
2022/01/12 12:34:24;;;;;;;0.70;0.70;;;;;;;12.96;21.81;95776.78;5132055;28;20441;-60
2022/01/12 12:36:58;;;;;;;0.40;0.30;;;;;;;13.53;22.11;95767.47;5132512;27;20431;-60
2022/01/12 12:39:30;;;;;;;0.40;0.30;;;;;;;12.21;23.50;95775.13;5132272;28;20490;-60
2022/01/12 12:41:59;;;;;;;0.40;0.40;;;;;;;11.66;23.23;95799.00;5132130;27;20768;-60
2022/01/12 12:44:30;;;;;;;0.50;0.50;;;;;;;11.58;23.75;95783.59;5131702;27;20906;-60
2022/01/12 12:47:11;;;;;;;0.40;0.30;;;;;;;12.10;23.77;95766.38;5132193;28;20415;-59
2022/01/12 12:49:50;;;;;;;0.73;0.50;;;;;;;12.11;22.59;95777.78;5132137;28;20483;-60
2022/01/12 12:52:27;;;;;;;0.40;0.30;;;;;;;11.72;22.45;95787.34;5131830;28;20457;-59
2022/01/12 12:54:58;;;;;;;0.40;0.30;;;;;;;12.30;22.80;95791.31;5133188;27;20426;-60
2022/01/12 12:57:29;;;;;;;0.80;0.80;;;;;;;13.75;24.24;95783.81;5134763;27;20460;-60
2022/01/12 13:00:11;;;;;;;0.40;0.40;;;;;;;13.90;22.74;95791.72;5135540;27;20435;-60
2022/01/12 13:02:42;;;;;;;0.40;0.30;;;;;;;13.95;22.18;95783.66;5135332;27;20470;-60
2022/01/12 13:05:13;;;;;;;0.87;0.87;;;;;;;13.02;22.14;95785.53;5135722;27;20468;-60
2022/01/12 13:07:43;;;;;;;0.50;0.50;;;;;;;12.14;23.99;95790.56;5135356;27;20448;-60
2022/01/12 13:10:16;;;;;;;0.40;0.33;;;;;;;12.37;24.64;95808.56;5135656;27;20859;-61
2022/01/12 13:12:47;;;;;;;2.03;0.37;;;;;;;11.75;24.57;95778.84;5134921;27;20454;-61
2022/01/12 13:15:24;;;;;;;0.40;0.37;;;;;;;12.22;23.70;95784.66;5135668;27;20804;-61
2022/01/12 13:18:02;;;;;;;0.40;0.30;;;;;;;12.50;25.34;95785.97;5134700;27;21006;-62
2022/01/12 13:23:22;;;;;;;0.40;0.30;;;;;;;10.57;23.23;95727.59;5134854;27;20507;-63
2022/01/12 13:25:54;;;;;;;1.23;0.40;;;;;;;11.69;24.07;95793.19;5134654;27;20493;-62
2022/01/12 13:28:23;;;;;;;0.50;0.50;;;;;;;11.86;23.86;95796.41;5135209;27;20431;-63
2022/01/12 13:30:56;;;;;;;0.50;0.30;;;;;;;11.72;24.02;95797.97;5134764;27;20427;-63
2022/01/12 13:33:27;;;;;;;0.40;0.30;;;;;;;11.44;24.02;95805.31;5134592;27;20458;-62
2022/01/12 13:35:58;;;;;;;0.40;0.20;;;;;;;11.45;24.60;95806.13;5134903;27;20422;-62
2022/01/12 13:38:30;;;;;;;2.40;0.37;;;;;;;11.66;24.63;95805.13;5134628;27;20426;-62
2022/01/12 13:41:08;;;;;;;0.40;0.40;;;;;;;11.69;24.43;95811.78;5134381;27;20427;-62